createdAt,value
2018-10-11T00:00:53.927Z,102397.36
2018-10-11T00:03:21.528Z,102393.32
2018-10-11T00:05:48.946Z,102396.78
2018-10-11T00:08:16.536Z,102390.97
2018-10-11T00:10:43.995Z,102389.19
2018-10-11T00:13:11.411Z,102386.03
2018-10-11T00:15:38.883Z,102376.66
2018-10-11T00:18:06.310Z,102390.38
2018-10-11T00:20:33.746Z,102394.73
2018-10-11T00:23:01.150Z,102389.80
2018-10-11T00:25:28.569Z,102381.76
2018-10-11T00:27:56.012Z,102382.64
2018-10-11T00:30:23.423Z,102386.55
2018-10-11T00:32:50.850Z,102392.72
2018-10-11T00:35:18.329Z,102397.06
2018-10-11T00:37:45.910Z,102401.50
2018-10-11T00:40:13.364Z,102407.63
2018-10-11T00:42:40.755Z,102408.52
2018-10-11T00:45:08.307Z,102415.14
2018-10-11T00:47:35.740Z,102417.80
2018-10-11T00:50:03.295Z,102417.75
2018-10-11T00:52:30.955Z,102419.04
2018-10-11T00:54:58.362Z,102415.92
2018-10-11T00:57:26.139Z,102415.00
2018-10-11T00:59:53.623Z,102402.59
2018-10-11T01:02:21.070Z,102399.45
2018-10-11T01:04:48.473Z,102402.06
2018-10-11T01:07:16.059Z,102413.61
2018-10-11T01:09:43.741Z,102417.56
2018-10-11T01:12:11.146Z,102422.50
2018-10-11T01:14:38.690Z,102420.68
2018-10-11T01:17:06.150Z,102430.02
2018-10-11T01:19:33.590Z,102424.19
2018-10-11T01:22:01.247Z,102421.92
2018-10-11T01:24:28.638Z,102362.53
2018-10-11T01:26:56.087Z,102415.30
2018-10-11T01:29:23.694Z,102414.80
2018-10-11T01:31:51.116Z,102415.69
2018-10-11T01:34:18.555Z,102418.36
2018-10-11T01:36:46.229Z,102414.85
2018-10-11T01:39:13.760Z,102414.41
2018-10-11T01:41:41.268Z,102407.78
2018-10-11T01:44:09.094Z,102422.84
2018-10-11T01:46:36.533Z,102424.19
2018-10-11T01:49:03.978Z,102427.73
2018-10-11T01:51:34.599Z,102421.52
2018-10-11T01:54:02.068Z,102432.59
2018-10-11T01:56:29.774Z,102431.78
2018-10-11T01:58:57.518Z,102429.61
2018-10-11T02:01:25.136Z,102430.89
2018-10-11T02:03:52.551Z,102436.27
2018-10-11T02:06:20.172Z,102443.83
2018-10-11T02:08:47.601Z,102444.27
2018-10-11T02:11:15.000Z,102444.27
2018-10-11T02:13:42.716Z,102444.27
2018-10-11T02:16:10.203Z,102438.94
2018-10-11T02:18:37.680Z,102441.61
2018-10-11T02:21:05.596Z,102445.16
2018-10-11T02:23:33.010Z,102446.01
2018-10-11T02:26:00.429Z,102445.16
2018-10-11T02:28:27.955Z,102449.16
2018-10-11T02:30:55.397Z,102449.20
2018-10-11T02:33:22.783Z,102443.87
2018-10-11T02:35:50.430Z,102445.20
2018-10-11T02:38:17.852Z,102444.67
2018-10-11T02:40:45.272Z,102448.27
2018-10-11T02:43:12.834Z,102445.16
2018-10-11T02:45:40.231Z,102441.61
2018-10-11T02:48:08.130Z,102446.10
2018-10-11T02:50:35.757Z,102406.50
2018-10-11T02:53:03.212Z,102446.20
2018-10-11T02:55:30.754Z,102445.34
2018-10-11T02:58:09.460Z,102450.67
2018-10-11T03:00:37.082Z,102454.67
2018-10-11T03:03:06.507Z,102453.39
2018-10-11T03:05:36.438Z,102452.05
2018-10-11T03:08:03.945Z,102453.39
2018-10-11T03:10:31.538Z,102456.05
2018-10-11T03:12:59.144Z,102451.17
2018-10-11T03:15:26.562Z,102457.39
2018-10-11T03:17:54.013Z,102465.83
2018-10-11T03:20:21.622Z,102468.95
2018-10-11T03:22:49.049Z,102463.66
2018-10-11T03:25:16.496Z,102462.85
2018-10-11T03:27:44.115Z,102462.91
2018-10-11T03:30:11.496Z,102461.04
2018-10-11T03:32:38.946Z,102476.18
2018-10-11T03:35:06.443Z,102470.89
2018-10-11T03:37:33.818Z,102465.97
2018-10-11T03:40:01.206Z,102471.34
2018-10-11T03:42:28.930Z,102471.34
2018-10-11T03:44:56.326Z,102462.46
2018-10-11T03:47:23.794Z,102482.89
2018-10-11T03:49:51.324Z,102482.45
2018-10-11T03:52:18.768Z,102478.01
2018-10-11T03:54:46.152Z,102475.79
2018-10-11T03:57:13.850Z,102476.67
2018-10-11T03:59:41.408Z,102483.78
2018-10-11T04:02:09.173Z,102485.56
2018-10-11T04:04:36.860Z,102488.22
2018-10-11T04:07:04.295Z,102487.34
2018-10-11T04:09:31.743Z,102484.72
2018-10-11T04:11:59.459Z,102474.98
2018-10-11T04:14:26.907Z,102482.50
2018-10-11T04:16:54.467Z,102489.16
2018-10-11T04:19:22.036Z,102489.16
2018-10-11T04:21:49.434Z,102485.64
2018-10-11T04:24:16.859Z,102489.64
2018-10-11T04:26:44.421Z,102486.54
2018-10-11T04:29:11.862Z,102486.54
2018-10-11T04:31:39.289Z,102486.14
2018-10-11T04:34:06.855Z,102487.91
2018-10-11T04:36:34.283Z,102487.96
2018-10-11T04:39:01.704Z,102492.89
2018-10-11T04:41:29.375Z,102494.76
2018-10-11T04:43:56.847Z,102485.07
2018-10-11T04:46:24.255Z,102492.67
2018-10-11T04:48:51.743Z,102489.60
2018-10-11T04:51:19.168Z,102486.53
2018-10-11T04:53:51.106Z,102486.58
2018-10-11T04:56:18.808Z,102501.23
2018-10-11T04:58:46.219Z,102504.79
2018-10-11T05:01:13.605Z,102507.98
2018-10-11T05:03:41.199Z,102518.68
2018-10-11T05:06:08.626Z,102519.22
2018-10-11T05:08:36.027Z,102525.60
2018-10-11T05:11:03.938Z,102536.78
2018-10-11T05:13:41.654Z,102544.90
2018-10-11T05:16:09.325Z,102551.20
2018-10-11T05:18:38.599Z,102557.05
2018-10-11T05:21:06.221Z,102554.83
2018-10-11T05:23:33.799Z,102551.36
2018-10-11T05:26:01.297Z,102561.64
2018-10-11T05:28:28.771Z,102558.14
2018-10-11T05:30:56.435Z,102565.72
2018-10-11T05:33:24.181Z,102560.52
2018-10-11T05:35:51.645Z,102567.66
2018-10-11T05:38:19.221Z,102562.41
2018-10-11T05:40:46.786Z,102569.17
2018-10-11T05:43:14.575Z,102575.09
2018-10-11T05:45:44.833Z,102579.20
2018-10-11T05:48:12.386Z,102586.37
2018-10-11T05:50:39.977Z,102584.19
2018-10-11T05:53:07.721Z,102582.90
2018-10-11T05:55:35.349Z,102594.91
2018-10-11T05:58:02.923Z,102601.64
2018-10-11T06:00:30.721Z,102606.11
2018-10-11T06:03:01.519Z,102611.44
2018-10-11T06:05:29.685Z,102614.64
2018-10-11T06:07:58.153Z,102612.94
2018-10-11T06:10:26.529Z,102617.86
2018-10-11T06:12:54.540Z,102619.66
2018-10-11T06:15:22.444Z,102618.37
2018-10-11T06:17:50.092Z,102610.01
2018-10-11T06:20:17.598Z,102613.15
2018-10-11T06:22:45.273Z,102618.06
2018-10-11T06:25:12.773Z,102616.77
2018-10-11T06:27:41.150Z,102614.62
2018-10-11T06:30:08.893Z,102617.34
2018-10-11T06:32:36.502Z,102610.32
2018-10-11T06:35:04.047Z,102611.65
2018-10-11T06:37:31.858Z,102617.00
2018-10-11T06:39:59.851Z,102610.39
2018-10-11T06:42:27.638Z,102622.39
2018-10-11T06:44:55.869Z,102622.45
2018-10-11T06:47:23.467Z,102627.34
2018-10-11T06:49:51.196Z,102626.48
2018-10-11T06:52:18.893Z,102619.36
2018-10-11T06:54:46.543Z,102624.67
2018-10-11T06:57:14.030Z,102629.55
2018-10-11T06:59:41.798Z,102634.46
2018-10-11T07:02:09.250Z,102639.30
2018-10-11T07:04:36.787Z,102637.97
2018-10-11T07:07:04.491Z,102640.22
2018-10-11T07:09:31.945Z,102641.59
2018-10-11T07:11:59.479Z,102644.21
2018-10-11T07:14:27.321Z,102653.52
2018-10-11T07:16:54.779Z,102654.85
2018-10-11T07:19:22.274Z,102651.72
2018-10-11T07:21:49.833Z,102656.12
2018-10-11T07:24:17.320Z,102661.81
2018-10-11T07:26:44.758Z,102660.93
2018-10-11T07:29:12.425Z,102662.60
2018-10-11T07:31:39.917Z,102663.02
2018-10-11T07:34:07.436Z,102664.31
2018-10-11T07:36:35.025Z,102659.44
2018-10-11T07:39:03.668Z,102666.47
2018-10-11T07:41:31.120Z,102668.61
2018-10-11T07:43:58.798Z,102665.89
2018-10-11T07:46:26.233Z,102662.27
2018-10-11T07:48:53.698Z,102659.98
2018-10-11T07:51:21.342Z,102667.42
2018-10-11T07:53:48.781Z,102660.70
2018-10-11T07:56:16.254Z,102648.22
2018-10-11T07:58:44.170Z,102642.38
2018-10-11T08:01:11.685Z,102644.05
2018-10-11T08:03:39.290Z,102647.97
2018-10-11T08:06:07.211Z,102654.11
2018-10-11T08:08:34.743Z,102653.11
2018-10-11T08:11:02.360Z,102650.37
2018-10-11T08:13:30.034Z,102653.41
2018-10-11T08:15:57.519Z,102653.81
2018-10-11T08:18:24.997Z,102647.98
2018-10-11T08:20:52.754Z,102611.29
2018-10-11T08:23:20.462Z,102653.64
2018-10-11T08:25:48.351Z,102660.66
2018-10-11T08:28:15.739Z,102664.14
2018-10-11T08:30:43.210Z,102660.48
2018-10-11T08:33:10.750Z,102619.39
2018-10-11T08:35:38.541Z,102667.84
2018-10-11T08:38:06.276Z,102667.72
2018-10-11T08:40:33.702Z,102665.42
2018-10-11T08:43:01.308Z,102663.50
2018-10-11T08:45:28.775Z,102667.89
2018-10-11T08:47:56.259Z,102667.81
2018-10-11T08:50:24.058Z,102664.11
2018-10-11T08:52:51.494Z,102665.28
2018-10-11T08:55:18.969Z,102662.53
2018-10-11T08:57:46.721Z,102666.41
2018-10-11T09:00:14.162Z,102668.10
2018-10-11T09:02:41.635Z,102668.80
2018-10-11T09:05:09.510Z,102672.27
2018-10-11T09:07:36.937Z,102669.92
2018-10-11T09:10:04.435Z,102668.47
2018-10-11T09:12:32.125Z,102671.44
2018-10-11T09:14:59.577Z,102670.83
2018-10-11T09:17:27.331Z,102668.35
2018-10-11T09:19:55.159Z,102666.36
2018-10-11T09:22:22.610Z,102666.94
2018-10-11T09:24:50.090Z,102666.63
2018-10-11T09:27:17.794Z,102660.97
2018-10-11T09:29:45.219Z,102658.72
2018-10-11T09:32:12.742Z,102658.25
2018-10-11T09:34:40.561Z,102600.03
2018-10-11T09:37:08.094Z,102654.34
2018-10-11T09:39:35.516Z,102654.84
2018-10-11T09:42:03.185Z,102665.56
2018-10-11T09:44:30.720Z,102666.95
2018-10-11T09:46:58.187Z,102666.97
2018-10-11T09:49:26.110Z,102666.89
2018-10-11T09:51:53.551Z,102672.38
2018-10-11T09:54:21.051Z,102661.17
2018-10-11T09:57:21.221Z,102662.95
2018-10-11T09:59:48.716Z,102655.86
2018-10-11T10:02:16.309Z,102663.55
2018-10-11T10:04:44.863Z,102656.66
2018-10-11T10:07:12.607Z,102667.51
2018-10-11T10:09:40.607Z,102669.89
2018-10-11T10:12:08.722Z,102670.55
2018-10-11T10:17:10.634Z,102664.59
2018-10-11T10:23:08.501Z,102662.64
2018-10-11T10:25:35.998Z,102665.96
2018-10-11T10:28:03.539Z,102658.52
2018-10-11T10:30:36.511Z,102662.14
2018-10-11T10:33:05.225Z,102668.03
2018-10-11T10:35:32.751Z,102668.61
2018-10-11T10:38:00.168Z,102666.75
2018-10-11T10:40:27.836Z,102658.25
2018-10-11T10:42:55.532Z,102667.22
2018-10-11T10:45:22.924Z,102663.74
2018-10-11T10:47:50.421Z,102657.52
2018-10-11T10:50:17.879Z,102641.41
2018-10-11T10:52:45.294Z,102639.58
2018-10-11T10:55:12.912Z,102635.10
2018-10-11T10:57:40.415Z,102643.05
2018-10-11T11:00:08.237Z,102633.16
2018-10-11T11:02:35.951Z,102634.89
2018-10-11T11:05:03.573Z,102638.88
2018-10-11T11:07:31.092Z,102634.33
2018-10-11T11:09:58.734Z,102632.62
2018-10-11T11:12:26.208Z,102634.36
2018-10-11T11:14:53.657Z,102632.65
2018-10-11T11:17:21.301Z,102633.23
2018-10-11T11:19:48.797Z,102633.39
2018-10-11T11:22:16.569Z,102628.36
2018-10-11T11:24:44.164Z,102629.55
2018-10-11T11:27:11.617Z,102635.39
2018-10-11T11:29:39.113Z,102637.54
2018-10-11T11:32:06.825Z,102625.75
2018-10-11T11:34:34.325Z,102631.47
2018-10-11T11:37:01.757Z,102592.59
2018-10-11T11:39:29.394Z,102634.31
2018-10-11T11:41:56.814Z,102638.20
2018-10-11T11:44:24.436Z,102635.81
2018-10-11T11:46:52.078Z,102634.01
2018-10-11T11:49:19.506Z,102632.66
2018-10-11T11:51:47.006Z,102637.73
2018-10-11T11:54:15.790Z,102625.06
2018-10-11T11:56:43.296Z,102621.91
2018-10-11T11:59:10.789Z,102632.28
2018-10-11T12:01:38.440Z,102627.75
2018-10-11T12:04:05.955Z,102640.81
2018-10-11T12:06:33.414Z,102626.98
2018-10-11T12:09:01.123Z,102624.75
2018-10-11T12:11:28.563Z,102619.83
2018-10-11T12:13:56.017Z,102622.52
2018-10-11T12:16:23.710Z,102621.17
2018-10-11T12:18:51.262Z,102621.09
2018-10-11T12:21:18.663Z,102622.86
2018-10-11T12:23:46.459Z,102620.25
2018-10-11T12:26:13.970Z,102616.30
2018-10-11T12:28:41.468Z,102618.25
2018-10-11T12:31:09.081Z,102612.72
2018-10-11T12:33:36.507Z,102617.38
2018-10-11T12:36:04.582Z,102618.21
2018-10-11T12:38:32.288Z,102616.37
2018-10-11T12:41:00.308Z,102617.94
2018-10-11T12:43:27.218Z,102618.80
2018-10-11T12:45:54.876Z,102613.07
2018-10-11T12:48:22.326Z,102607.61
2018-10-11T12:50:49.809Z,102606.70
2018-10-11T12:53:17.590Z,102609.61
2018-10-11T12:55:45.557Z,102608.09
2018-10-11T12:58:13.012Z,102605.70
2018-10-11T13:00:40.739Z,102600.76
2018-10-11T13:03:08.831Z,102596.66
2018-10-11T13:05:36.236Z,102594.83
2018-10-11T13:08:04.041Z,102537.42
2018-10-11T13:10:31.477Z,102590.62
2018-10-11T13:13:08.839Z,102590.89
2018-10-11T13:15:26.682Z,102591.84
2018-10-11T13:17:54.100Z,102599.80
2018-10-11T13:20:21.559Z,102599.75
2018-10-11T13:22:49.206Z,102600.05
2018-10-11T13:25:16.755Z,102594.00
2018-10-11T13:27:44.223Z,102593.45
2018-10-11T13:30:11.783Z,102600.98
2018-10-11T13:32:39.254Z,102598.56
2018-10-11T13:35:07.176Z,102600.09
2018-10-11T13:37:34.841Z,102595.38
2018-10-11T13:40:02.490Z,102597.96
2018-10-11T13:42:29.986Z,102595.59
2018-10-11T13:44:57.625Z,102594.64
2018-10-11T13:47:25.122Z,102598.19
2018-10-11T13:49:52.668Z,102595.84
2018-10-11T13:52:22.350Z,102597.43
2018-10-11T13:54:47.757Z,102597.73
2018-10-11T13:57:15.205Z,102597.64
2018-10-11T13:59:42.817Z,102548.58
2018-10-11T14:02:10.273Z,102589.39
2018-10-11T14:04:37.820Z,102596.59
2018-10-11T14:07:05.613Z,102595.34
2018-10-11T14:09:33.072Z,102596.86
2018-10-11T14:12:00.521Z,102596.06
2018-10-11T14:14:28.093Z,102598.03
2018-10-11T14:16:55.595Z,102600.88
2018-10-11T14:19:23.033Z,102603.47
2018-10-11T14:21:50.781Z,102601.37
2018-10-11T14:24:18.250Z,102597.23
2018-10-11T14:26:46.873Z,102591.73
2018-10-11T14:29:14.425Z,102597.73
2018-10-11T14:31:41.899Z,102593.83
2018-10-11T14:34:09.669Z,102591.67
2018-10-11T14:36:37.242Z,102591.33
2018-10-11T14:39:06.677Z,102587.47
2018-10-11T14:41:34.241Z,102584.91
2018-10-11T14:44:01.668Z,102579.96
2018-10-11T14:46:29.126Z,102575.95
2018-10-11T14:48:56.620Z,102577.34
2018-10-11T14:51:24.238Z,102573.55
2018-10-11T14:53:55.558Z,102575.39
2018-10-11T14:56:19.234Z,102579.56
2018-10-11T14:58:46.955Z,102579.37
2018-10-11T15:01:14.467Z,102580.98
2018-10-11T15:03:41.911Z,102575.36
2018-10-11T15:06:09.465Z,102581.69
2018-10-11T15:08:36.894Z,102585.80
2018-10-11T15:11:04.494Z,102583.34
2018-10-11T15:13:31.982Z,102584.78
2018-10-11T15:15:59.563Z,102589.48
2018-10-11T15:18:27.002Z,102585.25
2018-10-11T15:20:54.593Z,102583.08
2018-10-11T15:23:22.104Z,102589.42
2018-10-11T15:25:49.533Z,102581.02
2018-10-11T15:28:17.344Z,102587.29
2018-10-11T15:30:44.794Z,102587.84
2018-10-11T15:33:12.263Z,102589.87
2018-10-11T15:35:39.941Z,102591.05
2018-10-11T15:38:07.420Z,102598.81
2018-10-11T15:40:34.873Z,102586.19
2018-10-11T15:43:02.598Z,102589.80
2018-10-11T15:45:30.098Z,102582.23
2018-10-11T15:47:57.601Z,102584.46
2018-10-11T15:50:25.448Z,102585.05
2018-10-11T15:52:52.940Z,102586.52
2018-10-11T15:55:20.430Z,102587.02
2018-10-11T15:57:48.063Z,102586.17
2018-10-11T16:00:15.546Z,102589.33
2018-10-11T16:02:42.958Z,102584.53
2018-10-11T16:05:10.555Z,102582.31
2018-10-11T16:07:37.952Z,102572.17
2018-10-11T16:10:05.526Z,102577.91
2018-10-11T16:12:33.053Z,102572.13
2018-10-11T16:15:00.530Z,102569.11
2018-10-11T16:17:28.376Z,102574.54
2018-10-11T16:19:55.949Z,102569.25
2018-10-11T16:22:23.364Z,102573.66
2018-10-11T16:24:50.929Z,102569.55
2018-10-11T16:27:18.540Z,102567.73
2018-10-11T16:29:46.243Z,102560.56
2018-10-11T16:32:13.774Z,102565.80
2018-10-11T16:34:41.337Z,102562.69
2018-10-11T16:37:08.852Z,102559.14
2018-10-11T16:39:36.290Z,102555.53
2018-10-11T16:42:03.946Z,102552.82
2018-10-11T16:44:31.452Z,102547.44
2018-10-11T16:46:58.950Z,102548.22
2018-10-11T16:49:26.537Z,102551.34
2018-10-11T16:51:53.993Z,102555.44
2018-10-11T16:54:21.463Z,102550.59
2018-10-11T16:56:49.141Z,102550.59
2018-10-11T16:59:16.627Z,102550.59
2018-10-11T17:01:44.124Z,102556.33
2018-10-11T17:04:11.906Z,102556.28
2018-10-11T17:06:39.321Z,102552.28
2018-10-11T17:09:08.251Z,102552.28
2018-10-11T17:11:35.858Z,102543.29
2018-10-11T17:14:03.405Z,102541.41
2018-10-11T17:16:30.841Z,102539.53
2018-10-11T17:18:58.555Z,102541.27
2018-10-11T17:21:26.057Z,102542.25
2018-10-11T17:23:53.553Z,102545.81
2018-10-11T17:26:21.325Z,102537.86
2018-10-11T17:28:48.847Z,102539.63
2018-10-11T17:31:16.461Z,102541.41
2018-10-11T17:33:44.173Z,102532.16
2018-10-11T17:36:11.637Z,102537.55
2018-10-11T17:38:39.061Z,102535.33
2018-10-11T17:41:06.690Z,102525.09
2018-10-11T17:43:34.113Z,102527.28
2018-10-11T17:46:01.531Z,102526.42
2018-10-11T17:48:29.187Z,102526.33
2018-10-11T17:50:56.675Z,102532.42
2018-10-11T17:53:24.145Z,102523.08
2018-10-11T17:56:06.251Z,102523.61
2018-10-11T17:58:33.739Z,102520.99
2018-10-11T18:01:01.363Z,102530.38
2018-10-11T18:03:29.123Z,102529.90
2018-10-11T18:05:56.569Z,102535.72
2018-10-11T18:08:24.007Z,102530.78
2018-10-11T18:10:51.545Z,102527.18
2018-10-11T18:13:18.971Z,102528.52
2018-10-11T18:15:46.453Z,102536.02
2018-10-11T18:18:14.298Z,102533.75
2018-10-11T18:20:41.706Z,102519.61
2018-10-11T18:23:09.176Z,102536.07
2018-10-11T18:25:36.662Z,102537.86
2018-10-11T18:28:04.439Z,102541.77
2018-10-11T18:30:31.900Z,102537.31
2018-10-11T18:32:59.913Z,102535.09
2018-10-11T18:35:27.412Z,102533.80
2018-10-11T18:37:54.866Z,102536.95
2018-10-11T18:40:22.589Z,102532.47
2018-10-11T18:42:50.123Z,102523.56
2018-10-11T18:45:17.754Z,102528.95
2018-10-11T18:47:45.287Z,102533.50
2018-10-11T18:50:12.727Z,102525.09
2018-10-11T18:52:40.365Z,102523.38
2018-10-11T18:55:07.990Z,102519.90
2018-10-11T18:57:35.522Z,102515.02
2018-10-11T19:00:03.456Z,102523.38
2018-10-11T19:02:30.988Z,102518.87
2018-10-11T19:04:58.437Z,102523.76
2018-10-11T19:07:25.946Z,102525.19
2018-10-11T19:09:53.716Z,102521.63
2018-10-11T19:12:21.205Z,102516.75
2018-10-11T19:14:48.680Z,102529.64
2018-10-11T19:17:16.200Z,102522.03
2018-10-11T19:19:43.622Z,102523.27
2018-10-11T19:22:11.083Z,102522.33
2018-10-11T19:24:38.761Z,102531.77
2018-10-11T19:27:06.340Z,102524.80
2018-10-11T19:29:33.825Z,102526.77
2018-10-11T19:32:01.547Z,102527.21
2018-10-11T19:34:29.204Z,102527.12
2018-10-11T19:36:56.656Z,102526.23
2018-10-11T19:39:24.366Z,102532.09
2018-10-11T19:41:51.868Z,102529.97
2018-10-11T19:44:19.308Z,102526.92
2018-10-11T19:46:46.949Z,102530.07
2018-10-11T19:49:14.418Z,102529.23
2018-10-11T19:51:41.925Z,102530.61
2018-10-11T19:54:09.581Z,102529.28
2018-10-11T19:56:37.062Z,102530.26
2018-10-11T19:59:04.496Z,102529.96
2018-10-11T20:01:32.222Z,102528.37
2018-10-11T20:03:59.675Z,102529.05
2018-10-11T20:06:27.156Z,102511.72
2018-10-11T20:08:54.840Z,102519.05
2018-10-11T20:11:22.361Z,102523.05
2018-10-11T20:13:49.801Z,102514.25
2018-10-11T20:16:17.485Z,102504.91
2018-10-11T20:18:44.943Z,102508.08
2018-10-11T20:21:12.455Z,102514.30
2018-10-11T20:23:40.075Z,102508.17
2018-10-11T20:26:07.630Z,102502.44
2018-10-11T20:28:35.108Z,102503.28
2018-10-11T20:31:02.790Z,102494.00
2018-10-11T20:33:30.222Z,102497.55
2018-10-11T20:35:57.769Z,102495.77
2018-10-11T20:38:26.023Z,102499.28
2018-10-11T20:40:53.423Z,102498.74
2018-10-11T20:43:20.941Z,102501.41
2018-10-11T20:45:48.598Z,102505.86
2018-10-11T20:48:16.037Z,102509.45
2018-10-11T20:50:43.548Z,102505.91
2018-10-11T20:53:11.229Z,102513.45
2018-10-11T20:55:38.733Z,102516.96
2018-10-11T20:58:06.231Z,102520.96
2018-10-11T21:00:33.763Z,102522.65
2018-10-11T21:03:01.272Z,102513.67
2018-10-11T21:05:28.846Z,102517.63
2018-10-11T21:07:56.449Z,102518.42
2018-10-11T21:10:23.920Z,102517.09
2018-10-11T21:12:51.451Z,102505.04
2018-10-11T21:15:19.050Z,102509.88
2018-10-11T21:17:46.426Z,102511.57
2018-10-11T21:20:14.009Z,102511.95
2018-10-11T21:22:41.644Z,102511.87
2018-10-11T21:25:09.106Z,102506.44
2018-10-11T21:27:36.614Z,102509.11
2018-10-11T21:30:04.455Z,102504.63
2018-10-11T21:32:31.975Z,102501.06
2018-10-11T21:34:59.429Z,102498.74
2018-10-11T21:37:27.275Z,102501.36
2018-10-11T21:39:54.782Z,102495.98
2018-10-11T21:42:22.276Z,102501.36
2018-10-11T21:44:49.904Z,102501.91
2018-10-11T21:47:17.388Z,102508.96
2018-10-11T21:49:44.880Z,102512.92
2018-10-11T21:52:12.491Z,102511.01
2018-10-11T21:54:40.620Z,102518.02
2018-10-11T21:57:08.128Z,102509.08
2018-10-11T21:59:35.817Z,102513.92
2018-10-11T22:02:03.263Z,102512.98
2018-10-11T22:04:30.725Z,102505.87
2018-10-11T22:06:58.349Z,102507.16
2018-10-11T22:09:25.784Z,102505.77
2018-10-11T22:11:53.292Z,102508.79
2018-10-11T22:14:20.884Z,102506.51
2018-10-11T22:16:48.404Z,102499.84
2018-10-11T22:19:15.819Z,102500.64
2018-10-11T22:21:43.416Z,102498.85
2018-10-11T22:24:10.869Z,102490.35
2018-10-11T22:26:38.317Z,102494.30
2018-10-11T22:29:06.069Z,102498.70
2018-10-11T22:31:33.566Z,102495.16
2018-10-11T22:34:01.027Z,102485.81
2018-10-11T22:36:28.909Z,102481.36
2018-10-11T22:38:56.439Z,102489.37
2018-10-11T22:41:23.982Z,102481.36
2018-10-11T22:43:51.648Z,102473.36
2018-10-11T22:46:19.527Z,102486.20
2018-10-11T22:48:47.045Z,102483.93
2018-10-11T22:51:14.731Z,102475.92
2018-10-11T22:53:42.373Z,102484.81
2018-10-11T22:56:09.905Z,102486.59
2018-10-11T22:58:37.504Z,102477.26
2018-10-11T23:01:05.087Z,102479.53
2018-10-11T23:03:32.606Z,102481.71
2018-10-11T23:06:00.184Z,102479.47
2018-10-11T23:08:27.656Z,102473.66
2018-10-11T23:10:55.052Z,102421.69
2018-10-11T23:13:22.796Z,102485.56
2018-10-11T23:15:50.254Z,102466.28
2018-10-11T23:18:17.717Z,102480.66
2018-10-11T23:20:45.419Z,102484.28
2018-10-11T23:23:12.962Z,102482.99
2018-10-11T23:25:40.431Z,102486.14
2018-10-11T23:28:08.159Z,102484.37
2018-10-11T23:30:35.615Z,102475.57
2018-10-11T23:33:03.074Z,102470.63
2018-10-11T23:35:30.709Z,102475.52
2018-10-11T23:37:58.202Z,102467.08
2018-10-11T23:40:25.853Z,102465.34
2018-10-11T23:42:53.568Z,102463.66
2018-10-11T23:45:21.037Z,102458.47
2018-10-11T23:47:48.501Z,102457.64
2018-10-11T23:50:16.122Z,102451.86
2018-10-11T23:52:43.574Z,102452.36
2018-10-11T23:55:11.020Z,102451.95
2018-10-11T23:57:38.566Z,102446.19
